»·PEaware :: N245LG KAVX-L52

N245LG :: KAVX-L52

FLIGHT INFORMATION

Flight Status: Arrived
Operator: Privately registered:
United States
More flights under this callsign
Pilot: Erik A. (17503)
Aircraft: CESSNA 172 SKYHAWK
(C172)
More flights by this aircraft type
Origin: KAVX Catalina
United States
Destination: L52 Oceano Co
United States
More flights between these airports :: More routes between these airports
Route: +
File this flight plan on PilotEdge
Remarks:
Altitude:
(Current/Filed)
0ft
Speed:
(Current/Filed)
0kts
Departed: 28-Dec-17 01:13 PM
Arrived: 28-Dec-17 02:31 PM
Distance/Time
Traveled:
149nm/1:18
Distance/Time
To Go:
Arrived

Flight Plot

Page will automatically refresh every two minutes.


Map Options




Map Legend


Flown Route
Filed Route
Departure Airport
Arrival Airport
Navaid (VOR, NDB)
Fix

Horizontal Profiles

Position Reports

Time Latitude Longitude Heading Altitude Ground
Speed
28-Dec-17 13:18 33.493577 -118.513217 324 5786ft 80kts
28-Dec-17 13:19 33.512012 -118.530356 321 6296ft 83kts
28-Dec-17 13:20 33.530381 -118.547636 324 6805ft 85kts
28-Dec-17 13:21 33.546770 -118.568134 307 7300ft 85kts
28-Dec-17 13:22 33.562046 -118.589900 313 7772ft 85kts
28-Dec-17 13:23 33.579153 -118.609800 319 8222ft 85kts
28-Dec-17 13:24 33.597740 -118.627614 329 8643ft 85kts
28-Dec-17 13:25 33.617525 -118.643642 328 9035ft 86kts
28-Dec-17 13:26 33.637678 -118.659397 328 9415ft 86kts
28-Dec-17 13:27 33.658037 -118.674632 336 9782ft 86kts
28-Dec-17 13:28 33.679357 -118.687870 337 10138ft 86kts
28-Dec-17 13:29 33.700532 -118.702920 329 10362ft 99kts
28-Dec-17 13:30 33.724536 -118.722900 328 10435ft 109kts
28-Dec-17 13:31 33.750561 -118.743219 332 10466ft 112kts
28-Dec-17 13:32 33.778892 -118.759269 333 10496ft 108kts
28-Dec-17 13:33 33.806523 -118.776068 338 10520ft 110kts
28-Dec-17 13:34 33.834062 -118.793417 333 10566ft 111kts
28-Dec-17 13:35 33.860572 -118.812967 328 10608ft 112kts
28-Dec-17 13:36 33.885992 -118.835038 328 10653ft 112kts
28-Dec-17 13:37 33.911089 -118.857423 320 10686ft 113kts
28-Dec-17 13:38 33.930006 -118.888270 309 10702ft 115kts
28-Dec-17 13:39 33.952239 -118.915554 324 10726ft 113kts
28-Dec-17 13:40 33.976766 -118.939331 325 10745ft 113kts
28-Dec-17 13:41 34.002688 -118.961036 330 10728ft 114kts
28-Dec-17 13:42 34.030133 -118.980297 331 10713ft 114kts
28-Dec-17 13:43 34.057278 -119.001487 326 10599ft 119kts
28-Dec-17 13:44 34.084969 -119.020742 328 10613ft 115kts
28-Dec-17 13:45 34.104364 -119.050960 304 10727ft 116kts
28-Dec-17 13:46 34.122794 -119.085544 305 10629ft 129kts
28-Dec-17 13:47 34.141849 -119.121171 309 10557ft 121kts
28-Dec-17 13:48 34.163586 -119.152669 314 10562ft 121kts
28-Dec-17 13:49 34.188874 -119.180255 314 10516ft 122kts
28-Dec-17 13:50 34.206557 -119.215491 300 10557ft 123kts
28-Dec-17 13:51 34.228506 -119.246543 306 10396ft 118kts
28-Dec-17 13:52 34.245814 -119.281176 300 10251ft 120kts
28-Dec-17 13:53 34.261231 -119.316196 301 10277ft 110kts
28-Dec-17 13:54 34.275761 -119.347973 304 10522ft 108kts
28-Dec-17 13:55 34.291176 -119.380333 304 10647ft 113kts
28-Dec-17 13:56 34.308220 -119.412698 305 10628ft 115kts
28-Dec-17 13:57 34.327303 -119.443825 301 10568ft 117kts
28-Dec-17 13:58 34.342217 -119.478965 299 10526ft 117kts
28-Dec-17 13:59 34.356406 -119.514424 300 10482ft 117kts
28-Dec-17 14:00 34.375242 -119.545895 318 10446ft 114kts
28-Dec-17 14:01 34.394495 -119.577159 298 10388ft 115kts
28-Dec-17 14:02 34.406178 -119.613551 290 10377ft 116kts
28-Dec-17 14:03 34.416357 -119.650695 290 10365ft 116kts
28-Dec-17 14:04 34.423833 -119.689511 286 10460ft 119kts
28-Dec-17 14:05 34.431486 -119.728792 284 10821ft 121kts
28-Dec-17 14:06 34.439640 -119.769399 289 10893ft 134kts
28-Dec-17 14:07 34.448963 -119.813880 283 10718ft 136kts
28-Dec-17 14:08 34.460687 -119.855808 297 10563ft 129kts
28-Dec-17 14:09 34.475035 -119.895686 293 10129ft 131kts
28-Dec-17 14:10 34.489453 -119.935831 293 9734ft 129kts
28-Dec-17 14:11 34.498878 -119.978036 286 9333ft 130kts
28-Dec-17 14:12 34.508525 -120.017611 288 9245ft 119kts
28-Dec-17 14:13 34.518165 -120.057279 289 8983ft 123kts
28-Dec-17 14:14 34.530960 -120.095920 300 8733ft 123kts
28-Dec-17 14:15 34.548403 -120.131438 308 8518ft 122kts
28-Dec-17 14:16 34.569669 -120.163598 311 8419ft 124kts
28-Dec-17 14:17 34.591369 -120.196814 314 8397ft 121kts
28-Dec-17 14:18 34.613742 -120.225462 310 8452ft 111kts
28-Dec-17 14:19 34.635898 -120.251108 319 8542ft 110kts
28-Dec-17 14:20 34.658049 -120.277089 317 8634ft 110kts
28-Dec-17 14:21 34.681238 -120.302550 321 8619ft 116kts
28-Dec-17 14:22 34.710294 -120.328585 327 7849ft 133kts
28-Dec-17 14:23 34.740695 -120.355243 326 7059ft 136kts
28-Dec-17 14:24 34.774336 -120.374974 338 6350ft 133kts
28-Dec-17 14:25 34.808599 -120.391351 338 5798ft 131kts
28-Dec-17 14:26 34.842491 -120.410875 333 5197ft 134kts
28-Dec-17 14:27 34.875108 -120.432589 332 4640ft 133kts
28-Dec-17 14:28 34.905180 -120.458420 324 4161ft 132kts
28-Dec-17 14:29 34.933318 -120.487153 323 3567ft 130kts
28-Dec-17 14:30 34.961830 -120.512968 327 3114ft 123kts
28-Dec-17 14:31 34.989665 -120.533949 333 2838ft 109kts
28-Dec-17 14:32 35.016184 -120.553428 314 2517ft 112kts
28-Dec-17 14:33 35.038384 -120.578169 328 2279ft 104kts
28-Dec-17 14:34 35.063910 -120.587631 8 2031ft 82kts
28-Dec-17 14:35 35.082578 -120.591228 341 1345ft 64kts
28-Dec-17 14:36 35.093553 -120.607878 311 443ft 55kts
28-Dec-17 14:37 35.101102 -120.621558 306 17ft 29kts
28-Dec-17 14:38 35.102281 -120.622539 207 17ft 0kts
28-Dec-17 14:39 35.102279 -120.622540 207 17ft 0kts
28-Dec-17 14:40 35.102279 -120.622540 207 17ft 0kts
28-Dec-17 14:41 35.102279 -120.622540 207 17ft 0kts
28-Dec-17 14:42 35.102279 -120.622540 207 17ft 0kts
28-Dec-17 14:43 35.102279 -120.622540 207 17ft 0kts
28-Dec-17 14:44 35.102279 -120.622540 207 17ft 0kts
28-Dec-17 14:45 35.102279 -120.622540 207 17ft 0kts

Navigation Log

Ident Type
Flight plan parsing failed, navigation log unavailable